Terminal Aerodrome Forecast
Issued by NWS

Home | Current Version | Previous Version | Text Only | Print | Product List | Glossary On
Versions: 1 2 3 4 5 6 7 8 9 10 11 12 13 14 15 16 17 18
000
FTUS43 KDVN 171100
TAFCID
TAF
KCID 171135Z 1712/1812 VRB03KT 1/4SM FG VV002
     FM171400 06005KT 4SM BR BKN006
     FM171600 08006KT P6SM BKN015
     FM171800 10007KT P6SM SCT030 SCT250
     FM180600 10003KT 4SM BR SKC
     FM180900 10003KT 1SM BR SCT009=

USA.gov is the U.S. government's official web portal to all federal, state and local government web resources and services.